sensor_id;sensor_type;location;lat;lon;timestamp;P1;durP1;ratioP1;P2;durP2;ratioP2
41881;SDS011;27562;47.524;12.404;2022-08-19T00:01:47;5.55;;;3.17;;
41881;SDS011;27562;47.524;12.404;2022-08-19T00:04:15;4.78;;;3.25;;
41881;SDS011;27562;47.524;12.404;2022-08-19T00:06:42;5.68;;;3.40;;
41881;SDS011;27562;47.524;12.404;2022-08-19T00:09:10;4.90;;;3.38;;
41881;SDS011;27562;47.524;12.404;2022-08-19T00:11:38;6.65;;;3.75;;
41881;SDS011;27562;47.524;12.404;2022-08-19T00:17:26;7.35;;;3.65;;
41881;SDS011;27562;47.524;12.404;2022-08-19T00:19:52;5.60;;;3.47;;
41881;SDS011;27562;47.524;12.404;2022-08-19T00:22:17;5.90;;;3.50;;
41881;SDS011;27562;47.524;12.404;2022-08-19T00:24:44;5.47;;;3.60;;
41881;SDS011;27562;47.524;12.404;2022-08-19T00:27:10;5.93;;;3.80;;
41881;SDS011;27562;47.524;12.404;2022-08-19T00:29:37;8.13;;;3.55;;
41881;SDS011;27562;47.524;12.404;2022-08-19T00:32:03;7.63;;;4.20;;
41881;SDS011;27562;47.524;12.404;2022-08-19T00:34:29;8.38;;;3.85;;
41881;SDS011;27562;47.524;12.404;2022-08-19T00:36:55;5.85;;;3.45;;
41881;SDS011;27562;47.524;12.404;2022-08-19T00:39:21;7.43;;;3.58;;
41881;SDS011;27562;47.524;12.404;2022-08-19T00:41:47;6.43;;;3.72;;
41881;SDS011;27562;47.524;12.404;2022-08-19T00:44:16;11.95;;;3.58;;
41881;SDS011;27562;47.524;12.404;2022-08-19T00:46:45;10.60;;;4.38;;
41881;SDS011;27562;47.524;12.404;2022-08-19T00:49:20;7.25;;;4.35;;
41881;SDS011;27562;47.524;12.404;2022-08-19T00:51:50;6.80;;;4.25;;
41881;SDS011;27562;47.524;12.404;2022-08-19T00:54:18;5.90;;;4.30;;
41881;SDS011;27562;47.524;12.404;2022-08-19T00:56:46;6.10;;;4.13;;
41881;SDS011;27562;47.524;12.404;2022-08-19T00:59:13;8.68;;;4.18;;
41881;SDS011;27562;47.524;12.404;2022-08-19T01:01:40;5.80;;;3.63;;
41881;SDS011;27562;47.524;12.404;2022-08-19T01:04:07;5.53;;;3.85;;
41881;SDS011;27562;47.524;12.404;2022-08-19T01:06:33;6.40;;;3.45;;
41881;SDS011;27562;47.524;12.404;2022-08-19T01:09:02;5.10;;;3.95;;
41881;SDS011;27562;47.524;12.404;2022-08-19T01:11:30;5.45;;;3.88;;
41881;SDS011;27562;47.524;12.404;2022-08-19T01:13:59;6.65;;;4.05;;
41881;SDS011;27562;47.524;12.404;2022-08-19T01:16:25;5.13;;;3.30;;
41881;SDS011;27562;47.524;12.404;2022-08-19T01:18:53;7.18;;;3.88;;
41881;SDS011;27562;47.524;12.404;2022-08-19T01:23:53;8.07;;;4.25;;
41881;SDS011;27562;47.524;12.404;2022-08-19T01:26:21;6.05;;;3.70;;
41881;SDS011;27562;47.524;12.404;2022-08-19T01:28:49;6.30;;;3.53;;
41881;SDS011;27562;47.524;12.404;2022-08-19T01:31:21;4.70;;;3.35;;
41881;SDS011;27562;47.524;12.404;2022-08-19T01:33:50;4.97;;;3.55;;
41881;SDS011;27562;47.524;12.404;2022-08-19T01:36:29;5.97;;;3.40;;
41881;SDS011;27562;47.524;12.404;2022-08-19T01:39:05;4.60;;;3.58;;
41881;SDS011;27562;47.524;12.404;2022-08-19T01:41:32;5.35;;;3.42;;
41881;SDS011;27562;47.524;12.404;2022-08-19T01:43:58;5.38;;;3.10;;
41881;SDS011;27562;47.524;12.404;2022-08-19T01:46:28;4.85;;;3.35;;
41881;SDS011;27562;47.524;12.404;2022-08-19T01:48:54;4.75;;;3.70;;
41881;SDS011;27562;47.524;12.404;2022-08-19T01:51:20;5.30;;;3.47;;
41881;SDS011;27562;47.524;12.404;2022-08-19T01:53:49;5.78;;;3.40;;
41881;SDS011;27562;47.524;12.404;2022-08-19T01:56:16;5.97;;;3.20;;
41881;SDS011;27562;47.524;12.404;2022-08-19T01:58:48;7.50;;;3.45;;
41881;SDS011;27562;47.524;12.404;2022-08-19T02:01:24;5.80;;;3.95;;
41881;SDS011;27562;47.524;12.404;2022-08-19T02:03:49;6.90;;;3.80;;
41881;SDS011;27562;47.524;12.404;2022-08-19T02:06:16;5.40;;;3.60;;
41881;SDS011;27562;47.524;12.404;2022-08-19T02:08:42;5.00;;;3.35;;
41881;SDS011;27562;47.524;12.404;2022-08-19T02:11:17;5.15;;;3.88;;
41881;SDS011;27562;47.524;12.404;2022-08-19T02:13:47;8.88;;;4.95;;
41881;SDS011;27562;47.524;12.404;2022-08-19T02:16:14;6.53;;;4.68;;
41881;SDS011;27562;47.524;12.404;2022-08-19T02:18:41;6.97;;;4.55;;
41881;SDS011;27562;47.524;12.404;2022-08-19T02:21:07;8.23;;;4.53;;
41881;SDS011;27562;47.524;12.404;2022-08-19T02:23:33;7.28;;;4.00;;
41881;SDS011;27562;47.524;12.404;2022-08-19T02:25:58;5.60;;;4.22;;
41881;SDS011;27562;47.524;12.404;2022-08-19T02:28:24;6.45;;;4.28;;
41881;SDS011;27562;47.524;12.404;2022-08-19T02:30:50;6.93;;;4.18;;
41881;SDS011;27562;47.524;12.404;2022-08-19T02:33:15;6.68;;;4.43;;
41881;SDS011;27562;47.524;12.404;2022-08-19T02:35:42;6.63;;;4.47;;
41881;SDS011;27562;47.524;12.404;2022-08-19T02:38:09;6.38;;;4.03;;
41881;SDS011;27562;47.524;12.404;2022-08-19T02:40:57;6.15;;;3.80;;
41881;SDS011;27562;47.524;12.404;2022-08-19T02:43:27;6.22;;;3.65;;
41881;SDS011;27562;47.524;12.404;2022-08-19T02:45:54;5.95;;;3.40;;
41881;SDS011;27562;47.524;12.404;2022-08-19T02:48:21;6.00;;;3.83;;
41881;SDS011;27562;47.524;12.404;2022-08-19T02:50:49;6.38;;;4.07;;
41881;SDS011;27562;47.524;12.404;2022-08-19T02:53:26;4.18;;;3.03;;
41881;SDS011;27562;47.524;12.404;2022-08-19T02:55:53;5.40;;;3.00;;
41881;SDS011;27562;47.524;12.404;2022-08-19T02:58:19;4.72;;;3.00;;
41881;SDS011;27562;47.524;12.404;2022-08-19T03:00:49;6.00;;;3.30;;
41881;SDS011;27562;47.524;12.404;2022-08-19T03:03:16;5.35;;;3.65;;
41881;SDS011;27562;47.524;12.404;2022-08-19T03:05:44;6.13;;;3.40;;
41881;SDS011;27562;47.524;12.404;2022-08-19T03:08:10;8.95;;;3.42;;
41881;SDS011;27562;47.524;12.404;2022-08-19T03:10:41;5.30;;;3.90;;
41881;SDS011;27562;47.524;12.404;2022-08-19T03:13:09;4.75;;;3.38;;
41881;SDS011;27562;47.524;12.404;2022-08-19T03:15:40;4.15;;;3.15;;
41881;SDS011;27562;47.524;12.404;2022-08-19T03:18:07;5.50;;;3.38;;
41881;SDS011;27562;47.524;12.404;2022-08-19T03:20:33;6.03;;;3.42;;
41881;SDS011;27562;47.524;12.404;2022-08-19T03:23:04;5.53;;;4.00;;
41881;SDS011;27562;47.524;12.404;2022-08-19T03:25:29;5.47;;;4.10;;
41881;SDS011;27562;47.524;12.404;2022-08-19T03:27:55;5.13;;;3.17;;
41881;SDS011;27562;47.524;12.404;2022-08-19T03:30:21;4.50;;;3.30;;
41881;SDS011;27562;47.524;12.404;2022-08-19T03:32:47;5.18;;;4.10;;
41881;SDS011;27562;47.524;12.404;2022-08-19T03:35:12;7.82;;;4.30;;
41881;SDS011;27562;47.524;12.404;2022-08-19T03:37:38;8.07;;;4.70;;
41881;SDS011;27562;47.524;12.404;2022-08-19T03:40:04;6.60;;;4.05;;
41881;SDS011;27562;47.524;12.404;2022-08-19T03:42:30;7.57;;;4.05;;
41881;SDS011;27562;47.524;12.404;2022-08-19T03:44:55;6.38;;;4.50;;
41881;SDS011;27562;47.524;12.404;2022-08-19T03:47:21;8.25;;;4.47;;
41881;SDS011;27562;47.524;12.404;2022-08-19T03:49:46;7.38;;;4.10;;
41881;SDS011;27562;47.524;12.404;2022-08-19T03:52:12;6.88;;;4.75;;
41881;SDS011;27562;47.524;12.404;2022-08-19T03:54:39;7.45;;;4.75;;
41881;SDS011;27562;47.524;12.404;2022-08-19T03:57:05;11.50;;;5.30;;
41881;SDS011;27562;47.524;12.404;2022-08-19T03:59:32;9.80;;;4.80;;
41881;SDS011;27562;47.524;12.404;2022-08-19T04:02:00;5.63;;;4.25;;
41881;SDS011;27562;47.524;12.404;2022-08-19T04:04:27;8.15;;;4.20;;
41881;SDS011;27562;47.524;12.404;2022-08-19T04:06:53;6.78;;;4.18;;
41881;SDS011;27562;47.524;12.404;2022-08-19T04:09:20;8.18;;;4.43;;
41881;SDS011;27562;47.524;12.404;2022-08-19T04:11:47;8.25;;;4.70;;
41881;SDS011;27562;47.524;12.404;2022-08-19T04:14:20;7.38;;;4.63;;
41881;SDS011;27562;47.524;12.404;2022-08-19T04:16:49;7.40;;;4.43;;
41881;SDS011;27562;47.524;12.404;2022-08-19T04:19:15;6.55;;;4.20;;
41881;SDS011;27562;47.524;12.404;2022-08-19T04:21:42;5.88;;;4.03;;
41881;SDS011;27562;47.524;12.404;2022-08-19T04:24:10;5.05;;;3.72;;
41881;SDS011;27562;47.524;12.404;2022-08-19T04:26:37;5.70;;;4.18;;
41881;SDS011;27562;47.524;12.404;2022-08-19T04:29:06;5.95;;;3.50;;
41881;SDS011;27562;47.524;12.404;2022-08-19T04:31:35;8.00;;;3.83;;
41881;SDS011;27562;47.524;12.404;2022-08-19T04:34:02;7.10;;;4.45;;
41881;SDS011;27562;47.524;12.404;2022-08-19T04:36:31;6.38;;;4.13;;
41881;SDS011;27562;47.524;12.404;2022-08-19T04:39:00;6.22;;;4.50;;
41881;SDS011;27562;47.524;12.404;2022-08-19T04:41:28;6.50;;;4.15;;
41881;SDS011;27562;47.524;12.404;2022-08-19T04:44:12;6.75;;;4.07;;
41881;SDS011;27562;47.524;12.404;2022-08-19T04:46:39;6.28;;;4.38;;
41881;SDS011;27562;47.524;12.404;2022-08-19T04:49:05;5.18;;;3.55;;
41881;SDS011;27562;47.524;12.404;2022-08-19T04:51:33;10.13;;;3.80;;
41881;SDS011;27562;47.524;12.404;2022-08-19T04:54:00;6.38;;;3.88;;
41881;SDS011;27562;47.524;12.404;2022-08-19T04:56:26;7.82;;;4.10;;
41881;SDS011;27562;47.524;12.404;2022-08-19T04:58:53;5.97;;;3.50;;
41881;SDS011;27562;47.524;12.404;2022-08-19T05:01:25;5.00;;;3.70;;
41881;SDS011;27562;47.524;12.404;2022-08-19T05:03:56;5.35;;;3.50;;
41881;SDS011;27562;47.524;12.404;2022-08-19T05:06:22;4.60;;;3.35;;
41881;SDS011;27562;47.524;12.404;2022-08-19T05:08:50;7.47;;;3.88;;
41881;SDS011;27562;47.524;12.404;2022-08-19T05:11:18;5.25;;;3.63;;
41881;SDS011;27562;47.524;12.404;2022-08-19T05:13:46;6.82;;;3.90;;
41881;SDS011;27562;47.524;12.404;2022-08-19T05:16:17;5.53;;;4.20;;
41881;SDS011;27562;47.524;12.404;2022-08-19T05:18:44;5.15;;;3.55;;
41881;SDS011;27562;47.524;12.404;2022-08-19T05:21:29;6.97;;;4.45;;
41881;SDS011;27562;47.524;12.404;2022-08-19T05:24:14;6.38;;;4.10;;
41881;SDS011;27562;47.524;12.404;2022-08-19T05:26:41;4.82;;;3.60;;
41881;SDS011;27562;47.524;12.404;2022-08-19T05:29:11;4.50;;;3.30;;
41881;SDS011;27562;47.524;12.404;2022-08-19T05:31:38;5.47;;;3.90;;
41881;SDS011;27562;47.524;12.404;2022-08-19T05:34:04;6.13;;;3.72;;
41881;SDS011;27562;47.524;12.404;2022-08-19T05:36:33;6.18;;;4.15;;
41881;SDS011;27562;47.524;12.404;2022-08-19T05:39:05;5.30;;;4.20;;
41881;SDS011;27562;47.524;12.404;2022-08-19T05:41:31;8.05;;;4.10;;
41881;SDS011;27562;47.524;12.404;2022-08-19T05:43:58;7.25;;;4.03;;
41881;SDS011;27562;47.524;12.404;2022-08-19T05:46:26;6.00;;;4.20;;
41881;SDS011;27562;47.524;12.404;2022-08-19T05:48:52;6.20;;;4.28;;
41881;SDS011;27562;47.524;12.404;2022-08-19T05:51:21;7.45;;;3.78;;
41881;SDS011;27562;47.524;12.404;2022-08-19T05:53:47;5.47;;;3.90;;
41881;SDS011;27562;47.524;12.404;2022-08-19T05:56:14;5.97;;;4.15;;
41881;SDS011;27562;47.524;12.404;2022-08-19T05:58:41;6.95;;;3.50;;
41881;SDS011;27562;47.524;12.404;2022-08-19T06:01:12;6.93;;;5.07;;
41881;SDS011;27562;47.524;12.404;2022-08-19T06:03:39;6.85;;;5.20;;
41881;SDS011;27562;47.524;12.404;2022-08-19T06:06:09;8.85;;;5.30;;
41881;SDS011;27562;47.524;12.404;2022-08-19T06:08:36;8.68;;;5.18;;
41881;SDS011;27562;47.524;12.404;2022-08-19T06:13:40;10.68;;;5.35;;
41881;SDS011;27562;47.524;12.404;2022-08-19T06:16:06;10.27;;;5.47;;
41881;SDS011;27562;47.524;12.404;2022-08-19T06:18:31;8.85;;;5.93;;
41881;SDS011;27562;47.524;12.404;2022-08-19T06:20:58;10.18;;;6.35;;
41881;SDS011;27562;47.524;12.404;2022-08-19T06:23:24;7.93;;;5.80;;
41881;SDS011;27562;47.524;12.404;2022-08-19T06:25:50;8.60;;;6.22;;
41881;SDS011;27562;47.524;12.404;2022-08-19T06:28:16;11.38;;;7.03;;
41881;SDS011;27562;47.524;12.404;2022-08-19T06:30:41;8.60;;;6.22;;
41881;SDS011;27562;47.524;12.404;2022-08-19T06:33:07;14.07;;;8.20;;
41881;SDS011;27562;47.524;12.404;2022-08-19T06:35:37;8.25;;;6.70;;
41881;SDS011;27562;47.524;12.404;2022-08-19T06:38:04;12.65;;;7.78;;
41881;SDS011;27562;47.524;12.404;2022-08-19T06:40:30;11.23;;;7.85;;
41881;SDS011;27562;47.524;12.404;2022-08-19T06:42:56;8.77;;;6.68;;
41881;SDS011;27562;47.524;12.404;2022-08-19T06:45:23;11.90;;;7.13;;
41881;SDS011;27562;47.524;12.404;2022-08-19T06:47:50;14.13;;;6.82;;
41881;SDS011;27562;47.524;12.404;2022-08-19T06:50:20;8.83;;;6.20;;
41881;SDS011;27562;47.524;12.404;2022-08-19T06:52:47;9.43;;;5.78;;
41881;SDS011;27562;47.524;12.404;2022-08-19T06:55:12;10.40;;;6.60;;
41881;SDS011;27562;47.524;12.404;2022-08-19T06:57:38;7.80;;;5.43;;
41881;SDS011;27562;47.524;12.404;2022-08-19T07:00:04;8.23;;;6.45;;
41881;SDS011;27562;47.524;12.404;2022-08-19T07:05:02;9.38;;;6.32;;
41881;SDS011;27562;47.524;12.404;2022-08-19T07:07:28;14.07;;;6.82;;
41881;SDS011;27562;47.524;12.404;2022-08-19T07:09:54;9.52;;;6.85;;
41881;SDS011;27562;47.524;12.404;2022-08-19T07:12:19;11.20;;;6.63;;
41881;SDS011;27562;47.524;12.404;2022-08-19T07:14:45;9.05;;;6.93;;
41881;SDS011;27562;47.524;12.404;2022-08-19T07:17:12;10.98;;;7.88;;
41881;SDS011;27562;47.524;12.404;2022-08-19T07:19:38;9.75;;;7.32;;
41881;SDS011;27562;47.524;12.404;2022-08-19T07:22:05;8.73;;;7.00;;
41881;SDS011;27562;47.524;12.404;2022-08-19T07:24:32;9.00;;;6.57;;
41881;SDS011;27562;47.524;12.404;2022-08-19T07:26:59;9.05;;;6.82;;
41881;SDS011;27562;47.524;12.404;2022-08-19T07:29:27;7.90;;;5.70;;
41881;SDS011;27562;47.524;12.404;2022-08-19T07:31:55;6.82;;;5.38;;
41881;SDS011;27562;47.524;12.404;2022-08-19T07:34:21;9.50;;;6.80;;
41881;SDS011;27562;47.524;12.404;2022-08-19T07:36:48;7.78;;;6.25;;
41881;SDS011;27562;47.524;12.404;2022-08-19T07:39:17;10.52;;;6.38;;
41881;SDS011;27562;47.524;12.404;2022-08-19T07:41:49;11.57;;;7.32;;
41881;SDS011;27562;47.524;12.404;2022-08-19T07:44:16;11.65;;;7.35;;
41881;SDS011;27562;47.524;12.404;2022-08-19T07:46:43;11.55;;;8.15;;
41881;SDS011;27562;47.524;12.404;2022-08-19T07:49:11;7.78;;;6.53;;
41881;SDS011;27562;47.524;12.404;2022-08-19T07:51:42;11.60;;;7.72;;
41881;SDS011;27562;47.524;12.404;2022-08-19T07:54:08;10.07;;;6.93;;
41881;SDS011;27562;47.524;12.404;2022-08-19T07:56:34;10.80;;;6.70;;
41881;SDS011;27562;47.524;12.404;2022-08-19T07:58:59;9.30;;;6.82;;
41881;SDS011;27562;47.524;12.404;2022-08-19T08:01:26;8.88;;;6.97;;
41881;SDS011;27562;47.524;12.404;2022-08-19T08:03:53;10.10;;;6.90;;
41881;SDS011;27562;47.524;12.404;2022-08-19T08:06:39;10.43;;;8.05;;
41881;SDS011;27562;47.524;12.404;2022-08-19T08:09:28;9.10;;;6.20;;
41881;SDS011;27562;47.524;12.404;2022-08-19T08:11:57;10.15;;;7.47;;
41881;SDS011;27562;47.524;12.404;2022-08-19T08:14:30;9.52;;;7.93;;
41881;SDS011;27562;47.524;12.404;2022-08-19T08:17:02;9.85;;;7.95;;
41881;SDS011;27562;47.524;12.404;2022-08-19T08:19:29;8.77;;;5.90;;
41881;SDS011;27562;47.524;12.404;2022-08-19T08:21:56;10.85;;;8.18;;
41881;SDS011;27562;47.524;12.404;2022-08-19T08:24:23;12.80;;;8.25;;
41881;SDS011;27562;47.524;12.404;2022-08-19T08:26:49;9.95;;;7.03;;
41881;SDS011;27562;47.524;12.404;2022-08-19T08:29:16;9.02;;;7.18;;
41881;SDS011;27562;47.524;12.404;2022-08-19T08:31:42;11.90;;;7.90;;
41881;SDS011;27562;47.524;12.404;2022-08-19T08:34:09;9.38;;;7.25;;
41881;SDS011;27562;47.524;12.404;2022-08-19T08:36:36;11.95;;;8.23;;
41881;SDS011;27562;47.524;12.404;2022-08-19T08:44:23;8.05;;;5.95;;
41881;SDS011;27562;47.524;12.404;2022-08-19T08:47:03;7.32;;;6.10;;
41881;SDS011;27562;47.524;12.404;2022-08-19T08:49:51;7.85;;;6.68;;
41881;SDS011;27562;47.524;12.404;2022-08-19T08:52:29;7.05;;;6.10;;
41881;SDS011;27562;47.524;12.404;2022-08-19T08:55:00;8.77;;;5.60;;
41881;SDS011;27562;47.524;12.404;2022-08-19T08:57:35;5.50;;;4.80;;
41881;SDS011;27562;47.524;12.404;2022-08-19T09:00:06;6.85;;;4.88;;
41881;SDS011;27562;47.524;12.404;2022-08-19T09:05:01;7.07;;;4.82;;
41881;SDS011;27562;47.524;12.404;2022-08-19T09:07:32;5.22;;;4.60;;
41881;SDS011;27562;47.524;12.404;2022-08-19T09:10:21;5.72;;;4.20;;
41881;SDS011;27562;47.524;12.404;2022-08-19T09:15:38;6.80;;;3.15;;
41881;SDS011;27562;47.524;12.404;2022-08-19T09:18:37;4.00;;;3.00;;
41881;SDS011;27562;47.524;12.404;2022-08-19T09:21:09;4.53;;;3.47;;
41881;SDS011;27562;47.524;12.404;2022-08-19T09:23:35;4.18;;;3.08;;
41881;SDS011;27562;47.524;12.404;2022-08-19T09:26:06;3.80;;;3.08;;
41881;SDS011;27562;47.524;12.404;2022-08-19T09:28:33;3.67;;;2.85;;
41881;SDS011;27562;47.524;12.404;2022-08-19T09:30:59;3.65;;;2.92;;
41881;SDS011;27562;47.524;12.404;2022-08-19T09:33:25;3.40;;;2.72;;
41881;SDS011;27562;47.524;12.404;2022-08-19T09:36:01;3.25;;;2.72;;
41881;SDS011;27562;47.524;12.404;2022-08-19T09:38:35;3.78;;;2.75;;
41881;SDS011;27562;47.524;12.404;2022-08-19T09:41:05;4.78;;;2.97;;
41881;SDS011;27562;47.524;12.404;2022-08-19T09:43:32;4.45;;;2.33;;
41881;SDS011;27562;47.524;12.404;2022-08-19T09:46:01;3.30;;;2.50;;
41881;SDS011;27562;47.524;12.404;2022-08-19T09:48:31;3.58;;;2.53;;
41881;SDS011;27562;47.524;12.404;2022-08-19T09:53:37;4.50;;;2.90;;
41881;SDS011;27562;47.524;12.404;2022-08-19T09:56:03;3.20;;;2.13;;
41881;SDS011;27562;47.524;12.404;2022-08-19T09:58:30;3.95;;;2.70;;
41881;SDS011;27562;47.524;12.404;2022-08-19T10:00:57;3.30;;;2.20;;
41881;SDS011;27562;47.524;12.404;2022-08-19T10:03:24;3.33;;;2.40;;
41881;SDS011;27562;47.524;12.404;2022-08-19T10:05:51;5.28;;;2.80;;
41881;SDS011;27562;47.524;12.404;2022-08-19T10:08:21;3.50;;;2.65;;
41881;SDS011;27562;47.524;12.404;2022-08-19T10:10:50;4.43;;;2.45;;
41881;SDS011;27562;47.524;12.404;2022-08-19T10:13:17;3.45;;;2.50;;
41881;SDS011;27562;47.524;12.404;2022-08-19T10:15:47;4.85;;;2.50;;
41881;SDS011;27562;47.524;12.404;2022-08-19T10:18:15;4.15;;;2.40;;
41881;SDS011;27562;47.524;12.404;2022-08-19T10:20:43;5.28;;;2.40;;
41881;SDS011;27562;47.524;12.404;2022-08-19T10:23:10;3.05;;;2.45;;
41881;SDS011;27562;47.524;12.404;2022-08-19T10:25:36;4.82;;;3.00;;
41881;SDS011;27562;47.524;12.404;2022-08-19T10:28:02;4.88;;;3.00;;
41881;SDS011;27562;47.524;12.404;2022-08-19T10:30:29;4.35;;;2.50;;
41881;SDS011;27562;47.524;12.404;2022-08-19T10:32:55;4.13;;;2.60;;
41881;SDS011;27562;47.524;12.404;2022-08-19T10:35:20;3.47;;;2.50;;
41881;SDS011;27562;47.524;12.404;2022-08-19T10:37:46;3.55;;;2.35;;
41881;SDS011;27562;47.524;12.404;2022-08-19T10:40:12;3.22;;;2.25;;
41881;SDS011;27562;47.524;12.404;2022-08-19T10:42:37;4.10;;;2.40;;
41881;SDS011;27562;47.524;12.404;2022-08-19T10:45:04;4.60;;;2.75;;
41881;SDS011;27562;47.524;12.404;2022-08-19T10:47:31;5.70;;;2.00;;
41881;SDS011;27562;47.524;12.404;2022-08-19T10:49:58;3.50;;;2.40;;
41881;SDS011;27562;47.524;12.404;2022-08-19T10:52:43;4.78;;;2.70;;
41881;SDS011;27562;47.524;12.404;2022-08-19T10:55:11;3.88;;;2.10;;
41881;SDS011;27562;47.524;12.404;2022-08-19T10:58:16;3.65;;;2.33;;
41881;SDS011;27562;47.524;12.404;2022-08-19T11:00:53;2.75;;;2.00;;
41881;SDS011;27562;47.524;12.404;2022-08-19T11:03:21;2.75;;;2.08;;
41881;SDS011;27562;47.524;12.404;2022-08-19T11:05:56;5.22;;;2.03;;
41881;SDS011;27562;47.524;12.404;2022-08-19T11:08:25;3.70;;;2.00;;
41881;SDS011;27562;47.524;12.404;2022-08-19T11:10:53;2.70;;;1.83;;
41881;SDS011;27562;47.524;12.404;2022-08-19T11:13:24;3.15;;;1.90;;
41881;SDS011;27562;47.524;12.404;2022-08-19T11:16:04;3.08;;;1.58;;
41881;SDS011;27562;47.524;12.404;2022-08-19T11:18:40;3.08;;;1.60;;
41881;SDS011;27562;47.524;12.404;2022-08-19T11:21:18;2.88;;;1.98;;
41881;SDS011;27562;47.524;12.404;2022-08-19T11:23:50;3.08;;;1.80;;
41881;SDS011;27562;47.524;12.404;2022-08-19T11:26:18;2.53;;;2.05;;
41881;SDS011;27562;47.524;12.404;2022-08-19T11:28:44;2.58;;;1.73;;
41881;SDS011;27562;47.524;12.404;2022-08-19T11:31:15;4.70;;;2.15;;
41881;SDS011;27562;47.524;12.404;2022-08-19T11:33:43;3.67;;;1.90;;
41881;SDS011;27562;47.524;12.404;2022-08-19T11:36:09;2.78;;;1.98;;
41881;SDS011;27562;47.524;12.404;2022-08-19T11:38:35;4.20;;;2.25;;
41881;SDS011;27562;47.524;12.404;2022-08-19T11:41:03;4.07;;;2.08;;
41881;SDS011;27562;47.524;12.404;2022-08-19T11:43:31;2.22;;;1.60;;
41881;SDS011;27562;47.524;12.404;2022-08-19T11:45:56;4.20;;;2.13;;
41881;SDS011;27562;47.524;12.404;2022-08-19T11:48:23;2.70;;;1.70;;
41881;SDS011;27562;47.524;12.404;2022-08-19T11:50:50;3.35;;;1.85;;
41881;SDS011;27562;47.524;12.404;2022-08-19T11:53:18;2.33;;;1.67;;
41881;SDS011;27562;47.524;12.404;2022-08-19T11:55:45;3.97;;;2.35;;
41881;SDS011;27562;47.524;12.404;2022-08-19T11:58:16;3.72;;;1.80;;
41881;SDS011;27562;47.524;12.404;2022-08-19T12:00:42;2.90;;;2.03;;
41881;SDS011;27562;47.524;12.404;2022-08-19T12:03:10;2.55;;;1.80;;
41881;SDS011;27562;47.524;12.404;2022-08-19T12:05:37;2.70;;;1.70;;
41881;SDS011;27562;47.524;12.404;2022-08-19T12:08:04;3.45;;;1.90;;
41881;SDS011;27562;47.524;12.404;2022-08-19T12:10:31;3.40;;;1.80;;
41881;SDS011;27562;47.524;12.404;2022-08-19T12:12:57;3.30;;;1.85;;
41881;SDS011;27562;47.524;12.404;2022-08-19T12:15:22;2.83;;;1.85;;
41881;SDS011;27562;47.524;12.404;2022-08-19T12:17:48;5.15;;;1.95;;
41881;SDS011;27562;47.524;12.404;2022-08-19T12:20:14;3.78;;;2.20;;
41881;SDS011;27562;47.524;12.404;2022-08-19T12:22:42;4.38;;;2.25;;
41881;SDS011;27562;47.524;12.404;2022-08-19T12:25:11;3.38;;;1.88;;
41881;SDS011;27562;47.524;12.404;2022-08-19T12:27:37;2.70;;;2.15;;
41881;SDS011;27562;47.524;12.404;2022-08-19T12:30:04;2.67;;;1.92;;
41881;SDS011;27562;47.524;12.404;2022-08-19T12:32:31;3.25;;;2.05;;
41881;SDS011;27562;47.524;12.404;2022-08-19T12:34:57;4.28;;;1.75;;
41881;SDS011;27562;47.524;12.404;2022-08-19T12:37:23;2.45;;;1.70;;
41881;SDS011;27562;47.524;12.404;2022-08-19T12:39:48;3.60;;;1.92;;
41881;SDS011;27562;47.524;12.404;2022-08-19T12:42:14;2.85;;;1.85;;
41881;SDS011;27562;47.524;12.404;2022-08-19T12:44:41;2.97;;;1.92;;
41881;SDS011;27562;47.524;12.404;2022-08-19T12:47:08;3.63;;;2.33;;
41881;SDS011;27562;47.524;12.404;2022-08-19T12:49:36;3.67;;;1.98;;
41881;SDS011;27562;47.524;12.404;2022-08-19T12:52:06;3.45;;;1.85;;
41881;SDS011;27562;47.524;12.404;2022-08-19T12:54:35;2.05;;;1.70;;
41881;SDS011;27562;47.524;12.404;2022-08-19T12:57:05;6.03;;;2.22;;
41881;SDS011;27562;47.524;12.404;2022-08-19T12:59:33;2.92;;;2.05;;
41881;SDS011;27562;47.524;12.404;2022-08-19T13:02:05;2.65;;;1.92;;
41881;SDS011;27562;47.524;12.404;2022-08-19T13:04:32;2.63;;;2.00;;
41881;SDS011;27562;47.524;12.404;2022-08-19T13:07:05;2.53;;;1.92;;
41881;SDS011;27562;47.524;12.404;2022-08-19T13:09:33;3.50;;;2.20;;
41881;SDS011;27562;47.524;12.404;2022-08-19T13:11:59;2.40;;;1.90;;
41881;SDS011;27562;47.524;12.404;2022-08-19T13:14:28;3.45;;;2.13;;
41881;SDS011;27562;47.524;12.404;2022-08-19T13:16:55;3.20;;;1.80;;
41881;SDS011;27562;47.524;12.404;2022-08-19T13:19:22;3.15;;;2.00;;
41881;SDS011;27562;47.524;12.404;2022-08-19T13:21:49;3.97;;;2.10;;
41881;SDS011;27562;47.524;12.404;2022-08-19T13:24:16;3.40;;;2.38;;
41881;SDS011;27562;47.524;12.404;2022-08-19T13:26:42;3.15;;;2.35;;
41881;SDS011;27562;47.524;12.404;2022-08-19T13:29:08;3.20;;;2.03;;
41881;SDS011;27562;47.524;12.404;2022-08-19T13:31:52;2.95;;;2.10;;
41881;SDS011;27562;47.524;12.404;2022-08-19T13:34:36;5.25;;;2.30;;
41881;SDS011;27562;47.524;12.404;2022-08-19T13:37:02;3.55;;;2.35;;
41881;SDS011;27562;47.524;12.404;2022-08-19T13:39:30;2.92;;;2.10;;
41881;SDS011;27562;47.524;12.404;2022-08-19T13:41:59;4.03;;;2.25;;
41881;SDS011;27562;47.524;12.404;2022-08-19T13:44:26;2.92;;;2.38;;
41881;SDS011;27562;47.524;12.404;2022-08-19T13:46:54;3.25;;;2.40;;
41881;SDS011;27562;47.524;12.404;2022-08-19T13:49:27;3.97;;;2.58;;
41881;SDS011;27562;47.524;12.404;2022-08-19T13:51:54;4.88;;;2.67;;
41881;SDS011;27562;47.524;12.404;2022-08-19T13:54:19;4.70;;;3.05;;
41881;SDS011;27562;47.524;12.404;2022-08-19T13:56:45;7.72;;;2.40;;
41881;SDS011;27562;47.524;12.404;2022-08-19T13:59:11;12.43;;;3.40;;
41881;SDS011;27562;47.524;12.404;2022-08-19T14:01:37;11.82;;;3.05;;
41881;SDS011;27562;47.524;12.404;2022-08-19T14:04:03;7.65;;;2.40;;
41881;SDS011;27562;47.524;12.404;2022-08-19T14:06:30;8.32;;;2.80;;
41881;SDS011;27562;47.524;12.404;2022-08-19T14:09:03;10.90;;;3.15;;
41881;SDS011;27562;47.524;12.404;2022-08-19T14:11:30;7.82;;;2.45;;
41881;SDS011;27562;47.524;12.404;2022-08-19T14:13:56;7.03;;;2.55;;
41881;SDS011;27562;47.524;12.404;2022-08-19T14:16:21;7.00;;;2.90;;
41881;SDS011;27562;47.524;12.404;2022-08-19T14:18:47;4.97;;;2.15;;
41881;SDS011;27562;47.524;12.404;2022-08-19T14:21:14;3.60;;;1.55;;
41881;SDS011;27562;47.524;12.404;2022-08-19T14:23:42;5.00;;;1.60;;
41881;SDS011;27562;47.524;12.404;2022-08-19T14:26:13;4.03;;;1.50;;
41881;SDS011;27562;47.524;12.404;2022-08-19T14:28:40;5.10;;;1.42;;
41881;SDS011;27562;47.524;12.404;2022-08-19T14:31:11;3.85;;;1.45;;
41881;SDS011;27562;47.524;12.404;2022-08-19T14:33:38;5.97;;;1.50;;
41881;SDS011;27562;47.524;12.404;2022-08-19T14:36:05;3.42;;;1.40;;
41881;SDS011;27562;47.524;12.404;2022-08-19T14:38:31;2.33;;;1.30;;
41881;SDS011;27562;47.524;12.404;2022-08-19T14:43:33;3.60;;;1.20;;
41881;SDS011;27562;47.524;12.404;2022-08-19T14:45:59;4.28;;;1.45;;
41881;SDS011;27562;47.524;12.404;2022-08-19T14:48:25;2.90;;;1.35;;
41881;SDS011;27562;47.524;12.404;2022-08-19T14:50:51;4.07;;;1.50;;
41881;SDS011;27562;47.524;12.404;2022-08-19T14:53:17;2.92;;;1.77;;
41881;SDS011;27562;47.524;12.404;2022-08-19T14:55:44;2.47;;;1.20;;
41881;SDS011;27562;47.524;12.404;2022-08-19T14:58:10;7.20;;;1.77;;
41881;SDS011;27562;47.524;12.404;2022-08-19T15:00:36;3.17;;;1.40;;
41881;SDS011;27562;47.524;12.404;2022-08-19T15:03:02;2.97;;;1.63;;
41881;SDS011;27562;47.524;12.404;2022-08-19T15:05:28;3.30;;;1.77;;
41881;SDS011;27562;47.524;12.404;2022-08-19T15:07:53;3.65;;;1.80;;